Terminal Aerodrome Forecast
Issued by NWS Wakefield, VA

Home | Current Version | Previous Version | Text Only | Print | Product List | Glossary On
Versions: 1 2 3 4 5 6 7 8 9 10 11 12 13 14 15 16 17 18 19 20 21 22
203
FTUS41 KAKQ 101739
TAFECG
TAF
KECG 101739Z 1018/1118 25009KT P6SM FEW050
     FM102200 27009KT P6SM BKN100
     FM110600 29009KT P6SM SKC
     FM111300 28015KT P6SM SKC=

USA.gov is the U.S. government's official web portal to all federal, state and local government web resources and services.